sensor_id;sensor_type;location;lat;lon;timestamp;P1;durP1;ratioP1;P2;durP2;ratioP2
75316;SDS011;63913;51.492;10.368;2023-07-13T00:00:17;1.85;;;1.02;;
75316;SDS011;63913;51.492;10.368;2023-07-13T00:02:43;3.70;;;1.02;;
75316;SDS011;63913;51.492;10.368;2023-07-13T00:05:09;2.75;;;1.10;;
75316;SDS011;63913;51.492;10.368;2023-07-13T00:07:35;0.80;;;0.80;;
75316;SDS011;63913;51.492;10.368;2023-07-13T00:10:01;1.88;;;1.10;;
75316;SDS011;63913;51.492;10.368;2023-07-13T00:12:30;1.92;;;0.95;;
75316;SDS011;63913;51.492;10.368;2023-07-13T00:14:58;0.75;;;0.75;;
75316;SDS011;63913;51.492;10.368;2023-07-13T00:17:25;1.45;;;1.10;;
75316;SDS011;63913;51.492;10.368;2023-07-13T00:19:50;0.85;;;0.85;;
75316;SDS011;63913;51.492;10.368;2023-07-13T00:22:16;1.60;;;1.00;;
75316;SDS011;63913;51.492;10.368;2023-07-13T00:24:43;1.52;;;1.05;;
75316;SDS011;63913;51.492;10.368;2023-07-13T00:27:09;0.70;;;0.70;;
75316;SDS011;63913;51.492;10.368;2023-07-13T00:29:35;1.90;;;0.88;;
75316;SDS011;63913;51.492;10.368;2023-07-13T00:32:02;1.75;;;1.10;;
75316;SDS011;63913;51.492;10.368;2023-07-13T00:34:28;2.65;;;1.30;;
75316;SDS011;63913;51.492;10.368;2023-07-13T00:36:54;2.03;;;1.00;;
75316;SDS011;63913;51.492;10.368;2023-07-13T00:39:19;2.40;;;1.25;;
75316;SDS011;63913;51.492;10.368;2023-07-13T00:41:46;2.35;;;1.00;;
75316;SDS011;63913;51.492;10.368;2023-07-13T00:44:15;1.50;;;1.17;;
75316;SDS011;63913;51.492;10.368;2023-07-13T00:46:41;4.00;;;1.33;;
75316;SDS011;63913;51.492;10.368;2023-07-13T00:49:07;2.53;;;1.23;;
75316;SDS011;63913;51.492;10.368;2023-07-13T00:51:49;2.95;;;1.40;;
75316;SDS011;63913;51.492;10.368;2023-07-13T00:54:37;1.10;;;1.00;;
75316;SDS011;63913;51.492;10.368;2023-07-13T00:57:07;1.20;;;1.10;;
75316;SDS011;63913;51.492;10.368;2023-07-13T00:59:39;1.83;;;1.27;;
75316;SDS011;63913;51.492;10.368;2023-07-13T01:02:08;1.40;;;1.10;;
75316;SDS011;63913;51.492;10.368;2023-07-13T01:04:34;1.55;;;1.02;;
75316;SDS011;63913;51.492;10.368;2023-07-13T01:06:59;1.95;;;1.20;;
75316;SDS011;63913;51.492;10.368;2023-07-13T01:09:27;1.35;;;0.90;;
75316;SDS011;63913;51.492;10.368;2023-07-13T01:11:52;2.50;;;1.33;;
75316;SDS011;63913;51.492;10.368;2023-07-13T01:14:18;1.60;;;1.20;;
75316;SDS011;63913;51.492;10.368;2023-07-13T01:16:45;1.10;;;1.00;;
75316;SDS011;63913;51.492;10.368;2023-07-13T01:19:21;2.20;;;1.40;;
75316;SDS011;63913;51.492;10.368;2023-07-13T01:22:05;1.95;;;1.45;;
75316;SDS011;63913;51.492;10.368;2023-07-13T01:24:34;2.10;;;1.15;;
75316;SDS011;63913;51.492;10.368;2023-07-13T01:27:04;2.45;;;1.10;;
75316;SDS011;63913;51.492;10.368;2023-07-13T01:29:31;1.65;;;1.52;;
75316;SDS011;63913;51.492;10.368;2023-07-13T01:31:58;1.95;;;1.20;;
75316;SDS011;63913;51.492;10.368;2023-07-13T01:34:25;1.65;;;1.30;;
75316;SDS011;63913;51.492;10.368;2023-07-13T01:36:51;1.83;;;1.20;;
75316;SDS011;63913;51.492;10.368;2023-07-13T01:39:20;2.63;;;1.27;;
75316;SDS011;63913;51.492;10.368;2023-07-13T01:41:46;2.78;;;1.33;;
75316;SDS011;63913;51.492;10.368;2023-07-13T01:44:11;1.20;;;1.10;;
75316;SDS011;63913;51.492;10.368;2023-07-13T01:46:37;1.50;;;1.17;;
75316;SDS011;63913;51.492;10.368;2023-07-13T01:49:02;2.75;;;1.27;;
75316;SDS011;63913;51.492;10.368;2023-07-13T01:51:27;2.85;;;1.33;;
75316;SDS011;63913;51.492;10.368;2023-07-13T01:53:53;3.20;;;1.40;;
75316;SDS011;63913;51.492;10.368;2023-07-13T01:56:18;2.30;;;1.58;;
75316;SDS011;63913;51.492;10.368;2023-07-13T01:58:45;3.40;;;1.40;;
75316;SDS011;63913;51.492;10.368;2023-07-13T02:01:10;1.30;;;1.10;;
75316;SDS011;63913;51.492;10.368;2023-07-13T02:03:36;3.08;;;1.27;;
75316;SDS011;63913;51.492;10.368;2023-07-13T02:06:01;1.30;;;1.20;;
75316;SDS011;63913;51.492;10.368;2023-07-13T02:08:26;3.30;;;1.48;;
75316;SDS011;63913;51.492;10.368;2023-07-13T02:10:52;1.67;;;1.20;;
75316;SDS011;63913;51.492;10.368;2023-07-13T02:13:17;1.83;;;1.27;;
75316;SDS011;63913;51.492;10.368;2023-07-13T02:15:43;1.50;;;1.38;;
75316;SDS011;63913;51.492;10.368;2023-07-13T02:18:08;2.85;;;1.50;;
75316;SDS011;63913;51.492;10.368;2023-07-13T02:20:34;1.58;;;1.45;;
75316;SDS011;63913;51.492;10.368;2023-07-13T02:22:59;3.45;;;1.70;;
75316;SDS011;63913;51.492;10.368;2023-07-13T02:25:24;1.27;;;1.17;;
75316;SDS011;63913;51.492;10.368;2023-07-13T02:27:51;3.67;;;1.65;;
75316;SDS011;63913;51.492;10.368;2023-07-13T02:30:17;1.95;;;1.35;;
75316;SDS011;63913;51.492;10.368;2023-07-13T02:32:42;3.78;;;1.75;;
75316;SDS011;63913;51.492;10.368;2023-07-13T02:35:09;1.35;;;1.25;;
75316;SDS011;63913;51.492;10.368;2023-07-13T02:37:36;2.83;;;1.27;;
75316;SDS011;63913;51.492;10.368;2023-07-13T02:40:02;1.95;;;1.70;;
75316;SDS011;63913;51.492;10.368;2023-07-13T02:42:33;3.80;;;1.80;;
75316;SDS011;63913;51.492;10.368;2023-07-13T02:45:00;2.10;;;1.40;;
75316;SDS011;63913;51.492;10.368;2023-07-13T02:47:25;2.75;;;1.42;;
75316;SDS011;63913;51.492;10.368;2023-07-13T02:49:52;2.60;;;1.50;;
75316;SDS011;63913;51.492;10.368;2023-07-13T02:52:17;1.60;;;1.50;;
75316;SDS011;63913;51.492;10.368;2023-07-13T02:54:43;1.98;;;1.52;;
75316;SDS011;63913;51.492;10.368;2023-07-13T02:57:09;2.17;;;1.40;;
75316;SDS011;63913;51.492;10.368;2023-07-13T02:59:34;3.80;;;1.80;;
75316;SDS011;63913;51.492;10.368;2023-07-13T03:02:01;2.90;;;1.52;;
75316;SDS011;63913;51.492;10.368;2023-07-13T03:04:28;2.05;;;1.48;;
75316;SDS011;63913;51.492;10.368;2023-07-13T03:06:54;2.65;;;1.35;;
75316;SDS011;63913;51.492;10.368;2023-07-13T03:09:24;1.85;;;1.50;;
75316;SDS011;63913;51.492;10.368;2023-07-13T03:11:52;1.60;;;1.50;;
75316;SDS011;63913;51.492;10.368;2023-07-13T03:14:25;1.88;;;1.30;;
75316;SDS011;63913;51.492;10.368;2023-07-13T03:16:51;2.63;;;1.80;;
75316;SDS011;63913;51.492;10.368;2023-07-13T03:19:19;1.77;;;1.55;;
75316;SDS011;63913;51.492;10.368;2023-07-13T03:21:48;1.60;;;1.50;;
75316;SDS011;63913;51.492;10.368;2023-07-13T03:24:14;2.92;;;1.58;;
75316;SDS011;63913;51.492;10.368;2023-07-13T03:26:40;2.58;;;1.50;;
75316;SDS011;63913;51.492;10.368;2023-07-13T03:29:06;4.50;;;1.40;;
75316;SDS011;63913;51.492;10.368;2023-07-13T03:31:32;2.35;;;1.55;;
75316;SDS011;63913;51.492;10.368;2023-07-13T03:33:59;1.73;;;1.60;;
75316;SDS011;63913;51.492;10.368;2023-07-13T03:36:26;2.20;;;1.50;;
75316;SDS011;63913;51.492;10.368;2023-07-13T03:38:57;3.47;;;1.70;;
75316;SDS011;63913;51.492;10.368;2023-07-13T03:41:31;2.20;;;1.60;;
75316;SDS011;63913;51.492;10.368;2023-07-13T03:43:57;2.70;;;1.52;;
75316;SDS011;63913;51.492;10.368;2023-07-13T03:46:24;3.45;;;1.70;;
75316;SDS011;63913;51.492;10.368;2023-07-13T03:48:49;5.82;;;2.53;;
75316;SDS011;63913;51.492;10.368;2023-07-13T03:51:16;5.43;;;1.77;;
75316;SDS011;63913;51.492;10.368;2023-07-13T03:53:43;3.97;;;1.60;;
75316;SDS011;63913;51.492;10.368;2023-07-13T03:56:12;4.15;;;1.67;;
75316;SDS011;63913;51.492;10.368;2023-07-13T03:58:40;2.40;;;1.67;;
75316;SDS011;63913;51.492;10.368;2023-07-13T04:01:13;3.15;;;1.73;;
75316;SDS011;63913;51.492;10.368;2023-07-13T04:03:39;2.13;;;1.60;;
75316;SDS011;63913;51.492;10.368;2023-07-13T04:06:07;2.65;;;1.60;;
75316;SDS011;63913;51.492;10.368;2023-07-13T04:08:40;4.18;;;1.92;;
75316;SDS011;63913;51.492;10.368;2023-07-13T04:11:06;3.45;;;1.52;;
75316;SDS011;63913;51.492;10.368;2023-07-13T04:13:31;2.00;;;1.52;;
75316;SDS011;63913;51.492;10.368;2023-07-13T04:15:57;2.65;;;1.90;;
75316;SDS011;63913;51.492;10.368;2023-07-13T04:18:22;2.38;;;1.55;;
75316;SDS011;63913;51.492;10.368;2023-07-13T04:20:48;3.75;;;1.80;;
75316;SDS011;63913;51.492;10.368;2023-07-13T04:23:15;2.15;;;1.90;;
75316;SDS011;63913;51.492;10.368;2023-07-13T04:25:44;1.95;;;1.63;;
75316;SDS011;63913;51.492;10.368;2023-07-13T04:28:10;2.75;;;1.70;;
75316;SDS011;63913;51.492;10.368;2023-07-13T04:30:36;2.10;;;1.60;;
75316;SDS011;63913;51.492;10.368;2023-07-13T04:33:01;4.47;;;1.95;;
75316;SDS011;63913;51.492;10.368;2023-07-13T04:35:27;1.75;;;1.40;;
75316;SDS011;63913;51.492;10.368;2023-07-13T04:37:52;2.80;;;1.75;;
75316;SDS011;63913;51.492;10.368;2023-07-13T04:40:17;1.60;;;1.33;;
75316;SDS011;63913;51.492;10.368;2023-07-13T04:42:44;2.67;;;1.48;;
75316;SDS011;63913;51.492;10.368;2023-07-13T04:45:09;3.00;;;1.70;;
75316;SDS011;63913;51.492;10.368;2023-07-13T04:47:35;3.55;;;1.40;;
75316;SDS011;63913;51.492;10.368;2023-07-13T04:50:00;2.70;;;1.97;;
75316;SDS011;63913;51.492;10.368;2023-07-13T04:52:26;3.03;;;1.50;;
75316;SDS011;63913;51.492;10.368;2023-07-13T04:54:51;1.73;;;1.63;;
75316;SDS011;63913;51.492;10.368;2023-07-13T04:57:17;4.55;;;1.70;;
75316;SDS011;63913;51.492;10.368;2023-07-13T04:59:42;3.30;;;1.50;;
75316;SDS011;63913;51.492;10.368;2023-07-13T05:02:07;1.50;;;1.40;;
75316;SDS011;63913;51.492;10.368;2023-07-13T05:04:33;3.35;;;1.30;;
75316;SDS011;63913;51.492;10.368;2023-07-13T05:06:58;5.28;;;1.50;;
75316;SDS011;63913;51.492;10.368;2023-07-13T05:09:24;5.60;;;1.45;;
75316;SDS011;63913;51.492;10.368;2023-07-13T05:11:50;2.42;;;1.38;;
75316;SDS011;63913;51.492;10.368;2023-07-13T05:14:15;1.75;;;1.27;;
75316;SDS011;63913;51.492;10.368;2023-07-13T05:16:41;1.80;;;1.55;;
75316;SDS011;63913;51.492;10.368;2023-07-13T05:19:07;5.55;;;1.70;;
75316;SDS011;63913;51.492;10.368;2023-07-13T05:21:33;3.13;;;1.63;;
75316;SDS011;63913;51.492;10.368;2023-07-13T05:23:58;4.00;;;1.45;;
75316;SDS011;63913;51.492;10.368;2023-07-13T05:26:23;3.63;;;1.48;;
75316;SDS011;63913;51.492;10.368;2023-07-13T05:28:49;1.87;;;1.33;;
75316;SDS011;63913;51.492;10.368;2023-07-13T05:31:14;3.10;;;1.50;;
75316;SDS011;63913;51.492;10.368;2023-07-13T05:33:40;3.28;;;1.58;;
75316;SDS011;63913;51.492;10.368;2023-07-13T05:36:05;2.95;;;1.42;;
75316;SDS011;63913;51.492;10.368;2023-07-13T05:38:32;4.65;;;1.67;;
75316;SDS011;63913;51.492;10.368;2023-07-13T05:40:57;4.53;;;1.90;;
75316;SDS011;63913;51.492;10.368;2023-07-13T05:43:23;6.43;;;1.48;;
75316;SDS011;63913;51.492;10.368;2023-07-13T05:45:49;1.73;;;1.55;;
75316;SDS011;63913;51.492;10.368;2023-07-13T05:48:18;1.95;;;1.40;;
75316;SDS011;63913;51.492;10.368;2023-07-13T05:50:43;3.87;;;1.60;;
75316;SDS011;63913;51.492;10.368;2023-07-13T05:53:08;3.45;;;1.67;;
75316;SDS011;63913;51.492;10.368;2023-07-13T05:55:34;1.50;;;1.40;;
75316;SDS011;63913;51.492;10.368;2023-07-13T05:57:59;3.03;;;1.60;;
75316;SDS011;63913;51.492;10.368;2023-07-13T06:00:25;4.68;;;1.77;;
75316;SDS011;63913;51.492;10.368;2023-07-13T06:02:50;2.92;;;2.15;;
75316;SDS011;63913;51.492;10.368;2023-07-13T06:05:16;5.07;;;2.13;;
75316;SDS011;63913;51.492;10.368;2023-07-13T06:07:42;3.15;;;1.92;;
75316;SDS011;63913;51.492;10.368;2023-07-13T06:10:07;4.07;;;1.58;;
75316;SDS011;63913;51.492;10.368;2023-07-13T06:12:33;3.90;;;1.52;;
75316;SDS011;63913;51.492;10.368;2023-07-13T06:14:58;1.90;;;1.45;;
75316;SDS011;63913;51.492;10.368;2023-07-13T06:17:24;2.88;;;1.55;;
75316;SDS011;63913;51.492;10.368;2023-07-13T06:19:49;2.83;;;1.30;;
75316;SDS011;63913;51.492;10.368;2023-07-13T06:22:14;2.70;;;1.45;;
75316;SDS011;63913;51.492;10.368;2023-07-13T06:24:40;2.88;;;1.70;;
75316;SDS011;63913;51.492;10.368;2023-07-13T06:27:05;2.45;;;1.67;;
75316;SDS011;63913;51.492;10.368;2023-07-13T06:29:30;2.30;;;1.50;;
75316;SDS011;63913;51.492;10.368;2023-07-13T06:31:56;3.17;;;1.10;;
75316;SDS011;63913;51.492;10.368;2023-07-13T06:34:22;1.10;;;1.08;;
75316;SDS011;63913;51.492;10.368;2023-07-13T06:36:47;3.60;;;1.30;;
75316;SDS011;63913;51.492;10.368;2023-07-13T06:39:13;2.85;;;1.20;;
75316;SDS011;63913;51.492;10.368;2023-07-13T06:41:38;3.70;;;1.30;;
75316;SDS011;63913;51.492;10.368;2023-07-13T06:44:09;5.00;;;1.52;;
75316;SDS011;63913;51.492;10.368;2023-07-13T06:46:34;4.43;;;1.40;;
75316;SDS011;63913;51.492;10.368;2023-07-13T06:48:59;3.45;;;1.23;;
75316;SDS011;63913;51.492;10.368;2023-07-13T06:51:25;5.20;;;1.42;;
75316;SDS011;63913;51.492;10.368;2023-07-13T06:53:51;1.65;;;1.02;;
75316;SDS011;63913;51.492;10.368;2023-07-13T06:56:16;3.25;;;1.05;;
75316;SDS011;63913;51.492;10.368;2023-07-13T06:58:42;3.20;;;1.25;;
75316;SDS011;63913;51.492;10.368;2023-07-13T07:01:08;1.45;;;1.02;;
75316;SDS011;63913;51.492;10.368;2023-07-13T07:03:33;3.30;;;1.10;;
75316;SDS011;63913;51.492;10.368;2023-07-13T07:06:18;1.67;;;1.23;;
75316;SDS011;63913;51.492;10.368;2023-07-13T07:08:45;4.53;;;1.30;;
75316;SDS011;63913;51.492;10.368;2023-07-13T07:11:12;2.13;;;0.95;;
75316;SDS011;63913;51.492;10.368;2023-07-13T07:13:40;1.70;;;1.02;;
75316;SDS011;63913;51.492;10.368;2023-07-13T07:16:05;2.60;;;1.13;;
75316;SDS011;63913;51.492;10.368;2023-07-13T07:18:31;2.63;;;1.10;;
75316;SDS011;63913;51.492;10.368;2023-07-13T07:20:57;3.63;;;1.50;;
75316;SDS011;63913;51.492;10.368;2023-07-13T07:23:22;3.38;;;1.30;;
75316;SDS011;63913;51.492;10.368;2023-07-13T07:25:47;2.40;;;1.10;;
75316;SDS011;63913;51.492;10.368;2023-07-13T07:28:14;4.70;;;2.13;;
75316;SDS011;63913;51.492;10.368;2023-07-13T07:30:43;4.75;;;1.38;;
75316;SDS011;63913;51.492;10.368;2023-07-13T07:33:09;4.60;;;1.30;;
75316;SDS011;63913;51.492;10.368;2023-07-13T07:35:34;2.60;;;1.40;;
75316;SDS011;63913;51.492;10.368;2023-07-13T07:38:00;4.80;;;1.25;;
75316;SDS011;63913;51.492;10.368;2023-07-13T07:40:25;5.68;;;1.63;;
75316;SDS011;63913;51.492;10.368;2023-07-13T07:42:51;3.22;;;1.00;;
75316;SDS011;63913;51.492;10.368;2023-07-13T07:45:16;3.33;;;1.00;;
75316;SDS011;63913;51.492;10.368;2023-07-13T07:47:42;4.65;;;1.02;;
75316;SDS011;63913;51.492;10.368;2023-07-13T07:50:07;3.97;;;1.20;;
75316;SDS011;63913;51.492;10.368;2023-07-13T07:52:33;5.60;;;1.20;;
75316;SDS011;63913;51.492;10.368;2023-07-13T07:54:59;2.00;;;1.45;;
75316;SDS011;63913;51.492;10.368;2023-07-13T07:57:24;3.60;;;0.90;;
75316;SDS011;63913;51.492;10.368;2023-07-13T07:59:49;2.83;;;1.00;;
75316;SDS011;63913;51.492;10.368;2023-07-13T08:02:15;0.80;;;0.70;;
75316;SDS011;63913;51.492;10.368;2023-07-13T08:04:40;3.30;;;0.93;;
75316;SDS011;63913;51.492;10.368;2023-07-13T08:07:05;3.13;;;0.85;;
75316;SDS011;63913;51.492;10.368;2023-07-13T08:09:31;2.15;;;1.00;;
75316;SDS011;63913;51.492;10.368;2023-07-13T08:11:57;2.40;;;0.98;;
75316;SDS011;63913;51.492;10.368;2023-07-13T08:14:22;1.48;;;0.85;;
75316;SDS011;63913;51.492;10.368;2023-07-13T08:16:48;3.83;;;1.13;;
75316;SDS011;63913;51.492;10.368;2023-07-13T08:19:13;0.70;;;0.70;;
75316;SDS011;63913;51.492;10.368;2023-07-13T08:21:38;6.57;;;0.90;;
75316;SDS011;63913;51.492;10.368;2023-07-13T08:24:04;3.25;;;0.85;;
75316;SDS011;63913;51.492;10.368;2023-07-13T08:26:29;0.95;;;0.90;;
75316;SDS011;63913;51.492;10.368;2023-07-13T08:28:55;2.40;;;0.65;;
75316;SDS011;63913;51.492;10.368;2023-07-13T08:31:20;3.22;;;0.82;;
75316;SDS011;63913;51.492;10.368;2023-07-13T08:33:46;3.63;;;0.90;;
75316;SDS011;63913;51.492;10.368;2023-07-13T08:36:11;1.23;;;0.70;;
75316;SDS011;63913;51.492;10.368;2023-07-13T08:38:37;2.35;;;1.00;;
75316;SDS011;63913;51.492;10.368;2023-07-13T08:41:05;2.30;;;0.98;;
75316;SDS011;63913;51.492;10.368;2023-07-13T08:43:37;1.98;;;0.90;;
75316;SDS011;63913;51.492;10.368;2023-07-13T08:48:58;2.35;;;0.98;;
75316;SDS011;63913;51.492;10.368;2023-07-13T08:51:41;3.58;;;1.00;;
75316;SDS011;63913;51.492;10.368;2023-07-13T08:54:27;1.35;;;0.70;;
75316;SDS011;63913;51.492;10.368;2023-07-13T08:56:56;1.05;;;0.88;;
75316;SDS011;63913;51.492;10.368;2023-07-13T08:59:24;2.65;;;1.13;;
75316;SDS011;63913;51.492;10.368;2023-07-13T09:07:36;0.73;;;0.70;;
75316;SDS011;63913;51.492;10.368;2023-07-13T09:10:20;1.77;;;0.90;;
75316;SDS011;63913;51.492;10.368;2023-07-13T09:15:48;1.52;;;0.90;;
75316;SDS011;63913;51.492;10.368;2023-07-13T09:18:27;1.83;;;0.80;;
75316;SDS011;63913;51.492;10.368;2023-07-13T09:21:11;3.20;;;1.13;;
75316;SDS011;63913;51.492;10.368;2023-07-13T09:23:41;1.23;;;0.88;;
75316;SDS011;63913;51.492;10.368;2023-07-13T09:26:19;3.40;;;0.90;;
75316;SDS011;63913;51.492;10.368;2023-07-13T09:28:50;3.88;;;0.90;;
75316;SDS011;63913;51.492;10.368;2023-07-13T09:33:59;2.15;;;0.95;;
75316;SDS011;63913;51.492;10.368;2023-07-13T09:36:28;5.18;;;1.13;;
75316;SDS011;63913;51.492;10.368;2023-07-13T09:38:58;1.17;;;1.08;;
75316;SDS011;63913;51.492;10.368;2023-07-13T09:41:57;1.17;;;0.80;;
75316;SDS011;63913;51.492;10.368;2023-07-13T09:47:15;2.53;;;0.85;;
75316;SDS011;63913;51.492;10.368;2023-07-13T09:49:43;3.05;;;1.00;;
75316;SDS011;63913;51.492;10.368;2023-07-13T09:52:14;2.30;;;0.90;;
75316;SDS011;63913;51.492;10.368;2023-07-13T09:54:46;3.55;;;1.30;;
75316;SDS011;63913;51.492;10.368;2023-07-13T09:57:19;1.15;;;0.80;;
75316;SDS011;63913;51.492;10.368;2023-07-13T09:59:49;5.43;;;1.10;;
75316;SDS011;63913;51.492;10.368;2023-07-13T10:02:26;2.10;;;1.00;;
75316;SDS011;63913;51.492;10.368;2023-07-13T10:05:01;1.60;;;0.80;;
75316;SDS011;63913;51.492;10.368;2023-07-13T10:07:30;2.88;;;1.00;;
75316;SDS011;63913;51.492;10.368;2023-07-13T10:09:58;3.67;;;1.00;;
75316;SDS011;63913;51.492;10.368;2023-07-13T10:12:28;1.55;;;0.80;;
75316;SDS011;63913;51.492;10.368;2023-07-13T10:14:56;1.88;;;0.90;;
75316;SDS011;63913;51.492;10.368;2023-07-13T10:17:30;2.45;;;0.85;;
75316;SDS011;63913;51.492;10.368;2023-07-13T10:19:59;1.15;;;0.90;;
75316;SDS011;63913;51.492;10.368;2023-07-13T10:25:21;1.95;;;1.02;;
75316;SDS011;63913;51.492;10.368;2023-07-13T10:27:50;2.17;;;0.90;;
75316;SDS011;63913;51.492;10.368;2023-07-13T10:30:21;1.42;;;0.70;;
75316;SDS011;63913;51.492;10.368;2023-07-13T10:32:50;2.03;;;1.10;;
75316;SDS011;63913;51.492;10.368;2023-07-13T10:35:17;3.35;;;0.80;;
75316;SDS011;63913;51.492;10.368;2023-07-13T10:37:52;3.25;;;0.93;;
75316;SDS011;63913;51.492;10.368;2023-07-13T10:40:25;2.03;;;0.93;;
75316;SDS011;63913;51.492;10.368;2023-07-13T10:42:56;2.58;;;0.70;;
75316;SDS011;63913;51.492;10.368;2023-07-13T10:45:24;4.57;;;1.10;;
75316;SDS011;63913;51.492;10.368;2023-07-13T10:47:51;1.38;;;0.60;;
75316;SDS011;63913;51.492;10.368;2023-07-13T10:50:24;2.28;;;0.90;;
75316;SDS011;63913;51.492;10.368;2023-07-13T10:53:00;1.92;;;0.90;;
75316;SDS011;63913;51.492;10.368;2023-07-13T10:58:21;2.97;;;0.80;;
75316;SDS011;63913;51.492;10.368;2023-07-13T11:03:31;1.63;;;0.70;;
75316;SDS011;63913;51.492;10.368;2023-07-13T11:06:16;3.47;;;0.88;;
75316;SDS011;63913;51.492;10.368;2023-07-13T11:08:57;2.05;;;0.88;;
75316;SDS011;63913;51.492;10.368;2023-07-13T11:18:45;1.13;;;0.70;;
75316;SDS011;63913;51.492;10.368;2023-07-13T11:21:30;1.95;;;0.90;;
75316;SDS011;63913;51.492;10.368;2023-07-13T11:24:04;2.80;;;0.80;;
75316;SDS011;63913;51.492;10.368;2023-07-13T11:31:42;2.15;;;0.77;;
75316;SDS011;63913;51.492;10.368;2023-07-13T11:34:16;1.10;;;0.70;;
75316;SDS011;63913;51.492;10.368;2023-07-13T11:36:48;0.93;;;0.93;;
75316;SDS011;63913;51.492;10.368;2023-07-13T11:41:57;0.80;;;0.80;;
75316;SDS011;63913;51.492;10.368;2023-07-13T11:44:26;1.77;;;1.05;;
75316;SDS011;63913;51.492;10.368;2023-07-13T11:46:54;0.65;;;0.65;;
75316;SDS011;63913;51.492;10.368;2023-07-13T11:49:26;0.82;;;0.70;;
75316;SDS011;63913;51.492;10.368;2023-07-13T11:51:54;0.95;;;0.70;;
75316;SDS011;63913;51.492;10.368;2023-07-13T11:54:28;0.77;;;0.60;;
75316;SDS011;63913;51.492;10.368;2023-07-13T11:56:57;1.70;;;0.70;;
75316;SDS011;63913;51.492;10.368;2023-07-13T11:59:27;3.13;;;0.90;;
75316;SDS011;63913;51.492;10.368;2023-07-13T12:01:55;0.77;;;0.63;;
75316;SDS011;63913;51.492;10.368;2023-07-13T12:04:27;1.17;;;0.70;;
75316;SDS011;63913;51.492;10.368;2023-07-13T12:06:55;0.88;;;0.55;;
75316;SDS011;63913;51.492;10.368;2023-07-13T12:09:26;2.42;;;0.70;;
75316;SDS011;63913;51.492;10.368;2023-07-13T12:11:52;1.08;;;0.60;;
75316;SDS011;63913;51.492;10.368;2023-07-13T12:14:18;1.60;;;0.70;;
75316;SDS011;63913;51.492;10.368;2023-07-13T12:16:45;1.80;;;0.70;;
75316;SDS011;63913;51.492;10.368;2023-07-13T12:19:21;1.17;;;1.05;;
75316;SDS011;63913;51.492;10.368;2023-07-13T12:21:54;2.15;;;0.80;;
75316;SDS011;63913;51.492;10.368;2023-07-13T12:24:22;1.27;;;0.80;;
75316;SDS011;63913;51.492;10.368;2023-07-13T12:29:18;1.95;;;0.98;;
75316;SDS011;63913;51.492;10.368;2023-07-13T12:31:45;1.08;;;0.75;;
75316;SDS011;63913;51.492;10.368;2023-07-13T12:34:20;2.90;;;0.60;;
75316;SDS011;63913;51.492;10.368;2023-07-13T12:39:33;2.08;;;0.95;;
75316;SDS011;63913;51.492;10.368;2023-07-13T12:42:23;0.63;;;0.50;;
75316;SDS011;63913;51.492;10.368;2023-07-13T12:44:58;2.13;;;1.10;;
75316;SDS011;63913;51.492;10.368;2023-07-13T12:47:25;3.05;;;1.58;;
75316;SDS011;63913;51.492;10.368;2023-07-13T12:49:55;1.23;;;0.75;;
75316;SDS011;63913;51.492;10.368;2023-07-13T12:52:29;0.77;;;0.73;;
75316;SDS011;63913;51.492;10.368;2023-07-13T12:55:17;1.10;;;0.80;;
75316;SDS011;63913;51.492;10.368;2023-07-13T12:57:56;1.88;;;1.02;;
75316;SDS011;63913;51.492;10.368;2023-07-13T13:02:54;1.55;;;0.90;;
75316;SDS011;63913;51.492;10.368;2023-07-13T13:05:21;2.03;;;0.70;;
75316;SDS011;63913;51.492;10.368;2023-07-13T13:07:50;1.80;;;0.90;;
75316;SDS011;63913;51.492;10.368;2023-07-13T13:10:16;2.67;;;0.93;;
75316;SDS011;63913;51.492;10.368;2023-07-13T13:12:42;0.52;;;0.50;;
75316;SDS011;63913;51.492;10.368;2023-07-13T13:15:08;1.08;;;0.80;;
75316;SDS011;63913;51.492;10.368;2023-07-13T13:17:34;1.35;;;0.90;;
75316;SDS011;63913;51.492;10.368;2023-07-13T13:20:00;0.75;;;0.75;;
75316;SDS011;63913;51.492;10.368;2023-07-13T13:22:25;2.53;;;0.90;;
75316;SDS011;63913;51.492;10.368;2023-07-13T13:24:51;1.40;;;0.73;;
75316;SDS011;63913;51.492;10.368;2023-07-13T13:27:17;2.83;;;0.90;;
75316;SDS011;63913;51.492;10.368;2023-07-13T13:29:45;0.98;;;0.77;;
75316;SDS011;63913;51.492;10.368;2023-07-13T13:32:13;1.52;;;0.90;;
75316;SDS011;63913;51.492;10.368;2023-07-13T13:34:40;1.00;;;0.90;;
75316;SDS011;63913;51.492;10.368;2023-07-13T13:37:17;2.03;;;0.90;;
75316;SDS011;63913;51.492;10.368;2023-07-13T13:39:45;1.48;;;1.00;;
75316;SDS011;63913;51.492;10.368;2023-07-13T13:42:12;3.00;;;1.00;;
75316;SDS011;63913;51.492;10.368;2023-07-13T13:44:37;1.50;;;0.90;;
75316;SDS011;63913;51.492;10.368;2023-07-13T13:47:03;1.45;;;0.70;;
75316;SDS011;63913;51.492;10.368;2023-07-13T13:49:29;2.15;;;0.88;;
75316;SDS011;63913;51.492;10.368;2023-07-13T13:51:55;1.00;;;0.90;;
75316;SDS011;63913;51.492;10.368;2023-07-13T13:54:22;2.33;;;0.90;;
75316;SDS011;63913;51.492;10.368;2023-07-13T13:56:49;1.10;;;0.80;;
75316;SDS011;63913;51.492;10.368;2023-07-13T13:59:16;3.38;;;1.25;;
75316;SDS011;63913;51.492;10.368;2023-07-13T14:01:42;1.05;;;0.95;;
75316;SDS011;63913;51.492;10.368;2023-07-13T14:04:13;1.70;;;0.90;;
75316;SDS011;63913;51.492;10.368;2023-07-13T14:06:42;1.52;;;0.90;;
75316;SDS011;63913;51.492;10.368;2023-07-13T14:09:09;1.90;;;1.10;;
75316;SDS011;63913;51.492;10.368;2023-07-13T14:11:36;3.03;;;0.95;;
75316;SDS011;63913;51.492;10.368;2023-07-13T14:14:02;2.00;;;0.75;;
75316;SDS011;63913;51.492;10.368;2023-07-13T14:16:30;1.52;;;0.90;;
75316;SDS011;63913;51.492;10.368;2023-07-13T14:18:57;2.65;;;1.10;;
75316;SDS011;63913;51.492;10.368;2023-07-13T14:21:25;2.75;;;1.02;;
75316;SDS011;63913;51.492;10.368;2023-07-13T14:23:52;2.72;;;1.77;;
75316;SDS011;63913;51.492;10.368;2023-07-13T14:26:18;1.92;;;1.20;;
75316;SDS011;63913;51.492;10.368;2023-07-13T14:28:52;2.85;;;1.08;;
75316;SDS011;63913;51.492;10.368;2023-07-13T14:31:22;1.45;;;0.93;;
75316;SDS011;63913;51.492;10.368;2023-07-13T14:33:49;2.15;;;1.05;;
75316;SDS011;63913;51.492;10.368;2023-07-13T14:38:42;1.90;;;1.10;;
75316;SDS011;63913;51.492;10.368;2023-07-13T14:41:08;5.32;;;1.60;;
75316;SDS011;63913;51.492;10.368;2023-07-13T14:43:33;0.90;;;0.90;;
75316;SDS011;63913;51.492;10.368;2023-07-13T14:45:59;2.28;;;0.75;;
75316;SDS011;63913;51.492;10.368;2023-07-13T14:48:24;2.15;;;0.80;;
75316;SDS011;63913;51.492;10.368;2023-07-13T14:50:54;2.58;;;0.93;;
75316;SDS011;63913;51.492;10.368;2023-07-13T14:53:21;2.60;;;0.70;;
75316;SDS011;63913;51.492;10.368;2023-07-13T14:55:47;1.13;;;0.93;;
75316;SDS011;63913;51.492;10.368;2023-07-13T14:58:13;2.47;;;0.98;;
75316;SDS011;63913;51.492;10.368;2023-07-13T15:00:38;1.80;;;1.08;;
75316;SDS011;63913;51.492;10.368;2023-07-13T15:03:05;1.52;;;1.35;;
75316;SDS011;63913;51.492;10.368;2023-07-13T15:05:40;0.85;;;0.85;;
75316;SDS011;63913;51.492;10.368;2023-07-13T15:08:08;1.20;;;0.90;;
75316;SDS011;63913;51.492;10.368;2023-07-13T15:10:35;2.35;;;0.90;;
75316;SDS011;63913;51.492;10.368;2023-07-13T15:13:12;1.00;;;0.90;;
75316;SDS011;63913;51.492;10.368;2023-07-13T15:15:40;1.35;;;0.90;;
75316;SDS011;63913;51.492;10.368;2023-07-13T15:18:09;2.15;;;0.98;;
75316;SDS011;63913;51.492;10.368;2023-07-13T15:20:37;1.90;;;1.10;;
75316;SDS011;63913;51.492;10.368;2023-07-13T15:23:03;3.20;;;0.95;;
75316;SDS011;63913;51.492;10.368;2023-07-13T15:25:29;2.78;;;1.17;;
75316;SDS011;63913;51.492;10.368;2023-07-13T15:27:58;18.55;;;7.78;;